Prathersville, Missouri
Current Conditions -  °F | °C
As of 8:54 PM on Wednesday 26 Nov 2014 (Local Time) from KCOU Reporting Station
Overcast Overcast  
Wind Chill: 20°   Ceiling: 1000
Heat Index: 32°   Visibility: 9mi
Dew Point: 29°   Wind: 18mph
Humidity: 88%   Direction: 300°WNW
Pressure: 30.17"   Gusts: 28mph
Location:  39.0235°N, 92.2896°W
Report Text: KCOU 270254Z 30016G24KT 9SM OVC010 00/M02 A3017 RMK AO2 UPE09 SLP223 P0000 60001 I3000 T00001017 51036
Loading
Personal Weather Stations






























Interactive Weather Map New forecast layout! Learn more

10-Day Weather Forecast

Advertisements
Track Severe Weather on mobile